Time;durP1;ratioP1;P1;durP2;ratioP2;P2;SDS_P1;SDS_P2;PMS_P1;PMS_P2;Temp;Humidity;BMP_temperature;BMP_pressure;BME280_temperature;BME280_humidity;BME280_pressure;Samples;Min_cycle;Max_cycle;Signal;HPM_P1;HPM_P2
2022/12/14 00:02:31;;;;;;;4.77;4.00;;;19.30;54.70;;;;;;6247075;23;20380;-88
2022/12/14 00:05:00;;;;;;;4.30;3.90;;;19.30;54.70;;;;;;6247194;23;20367;-88
2022/12/14 00:07:28;;;;;;;6.00;3.70;;;19.30;54.70;;;;;;6247225;23;20365;-88
2022/12/14 00:10:00;;;;;;;5.53;3.87;;;19.30;54.60;;;;;;6247209;23;20388;-88
2022/12/14 00:12:28;;;;;;;5.13;4.07;;;19.30;54.60;;;;;;6273702;23;20360;-88
2022/12/14 00:14:57;;;;;;;6.10;4.30;;;19.30;54.60;;;;;;6247130;23;20416;-89
2022/12/14 00:17:27;;;;;;;5.80;3.73;;;19.30;54.70;;;;;;6247470;23;20390;-89
2022/12/14 00:19:53;;;;;;;4.27;3.87;;;19.30;54.60;;;;;;6247211;23;20399;-89
2022/12/14 00:22:18;;;;;;;4.43;3.40;;;19.30;54.70;;;;;;6246827;23;20377;-88
2022/12/14 00:24:46;;;;;;;4.93;4.27;;;19.30;54.70;;;;;;6247242;23;20368;-89
2022/12/14 00:27:19;;;;;;;5.70;3.73;;;19.30;54.70;;;;;;6273235;23;20154;-88
2022/12/14 00:29:45;;;;;;;5.77;3.47;;;19.30;54.70;;;;;;6247244;23;20370;-89
2022/12/14 00:32:11;;;;;;;4.20;3.23;;;19.30;54.70;;;;;;6273623;23;20376;-89
2022/12/14 00:34:39;;;;;;;3.57;3.27;;;19.30;54.80;;;;;;6273150;23;20154;-88
2022/12/14 00:37:16;;;;;;;4.03;3.63;;;19.30;54.80;;;;;;6246937;23;20165;-88
2022/12/14 00:39:44;;;;;;;4.43;3.47;;;19.30;54.80;;;;;;6273079;23;20424;-89
2022/12/14 00:42:12;;;;;;;5.13;3.90;;;19.20;54.70;;;;;;6247283;23;20365;-89
2022/12/14 00:44:40;;;;;;;5.83;3.50;;;19.20;54.70;;;;;;6247117;23;20350;-89
2022/12/14 00:47:08;;;;;;;5.33;3.57;;;19.20;54.70;;;;;;6273507;23;20333;-89
2022/12/14 00:49:43;;;;;;;5.30;3.93;;;19.20;54.80;;;;;;6247074;23;20402;-88
2022/12/14 00:52:17;;;;;;;4.63;3.63;;;19.20;54.80;;;;;;6246893;23;20401;-89
2022/12/14 00:54:54;;;;;;;4.20;3.80;;;19.20;54.80;;;;;;6247134;23;20411;-89
2022/12/14 00:57:20;;;;;;;4.00;3.23;;;19.20;54.80;;;;;;6246824;23;20373;-89
2022/12/14 00:59:54;;;;;;;4.47;3.57;;;19.20;54.80;;;;;;6272766;22;20426;-89
2022/12/14 01:02:50;;;;;;;4.10;3.50;;;19.20;54.80;;;;;;6247027;23;20355;-89
2022/12/14 01:05:22;;;;;;;5.83;3.53;;;19.20;54.80;;;;;;6273217;23;20380;-89
2022/12/14 01:07:51;;;;;;;3.30;2.80;;;19.20;54.80;;;;;;6273408;23;20360;-88
2022/12/14 01:10:18;;;;;;;5.63;4.00;;;19.20;54.80;;;;;;6246753;23;20362;-88
2022/12/14 01:12:58;;;;;;;4.33;3.93;;;19.20;54.80;;;;;;6247178;23;20362;-88
2022/12/14 01:15:24;;;;;;;3.90;3.50;;;19.20;54.80;;;;;;6246635;23;20491;-88
2022/12/14 01:17:56;;;;;;;3.93;3.17;;;19.10;54.80;;;;;;6246750;23;20357;-88
2022/12/14 01:20:42;;;;;;;3.77;3.03;;;19.20;54.80;;;;;;6246793;23;20372;-88
2022/12/14 01:23:22;;;;;;;7.30;3.50;;;19.10;54.80;;;;;;6247958;23;20362;-89
2022/12/14 01:25:47;;;;;;;5.43;3.63;;;19.10;54.80;;;;;;6248968;23;20377;-88
2022/12/14 01:28:24;;;;;;;6.57;3.60;;;19.10;54.80;;;;;;6248750;23;20381;-88
2022/12/14 01:30:50;;;;;;;3.70;3.40;;;19.10;54.90;;;;;;6248454;23;20138;-88
2022/12/14 01:33:20;;;;;;;4.10;3.00;;;19.10;54.80;;;;;;6274961;23;20336;-88
2022/12/14 01:35:54;;;;;;;4.37;3.03;;;19.10;54.90;;;;;;6248606;23;20417;-87
2022/12/14 01:38:25;;;;;;;3.77;3.37;;;19.10;54.80;;;;;;6248896;23;20357;-88
2022/12/14 01:40:57;;;;;;;3.53;3.00;;;19.10;54.80;;;;;;6248882;23;20419;-87
2022/12/14 01:43:47;;;;;;;3.20;2.90;;;19.10;54.90;;;;;;6274465;23;20377;-87
2022/12/14 01:46:19;;;;;;;5.23;3.80;;;19.10;54.90;;;;;;6248918;23;20392;-87
2022/12/14 01:49:05;;;;;;;2.97;2.67;;;19.00;54.80;;;;;;6274563;23;20349;-87
2022/12/14 01:52:02;;;;;;;4.37;3.50;;;19.10;54.90;;;;;;6248095;23;20406;-87
2022/12/14 01:54:31;;;;;;;4.67;3.27;;;19.00;54.80;;;;;;6248441;23;20435;-87
2022/12/14 01:56:58;;;;;;;5.27;3.63;;;19.00;54.90;;;;;;6274714;23;20349;-87
2022/12/14 01:59:45;;;;;;;3.33;3.03;;;19.00;54.90;;;;;;6248427;23;20441;-87
2022/12/14 02:02:22;;;;;;;3.50;2.80;;;19.00;54.90;;;;;;6277232;22;20397;-87
2022/12/14 02:04:56;;;;;;;3.60;2.97;;;19.00;54.90;;;;;;6247290;23;20385;-87
2022/12/14 02:07:24;;;;;;;6.43;3.43;;;19.00;55.00;;;;;;6274533;23;20338;-88
2022/12/14 02:09:56;;;;;;;3.33;2.63;;;19.00;55.10;;;;;;6274237;23;20360;-88
2022/12/14 02:12:52;;;;;;;4.60;2.90;;;19.00;55.10;;;;;;6274504;23;20354;-88
2022/12/14 02:15:41;;;;;;;3.77;3.00;;;19.00;55.10;;;;;;6247980;23;20432;-87
2022/12/14 02:18:35;;;;;;;3.57;3.00;;;19.00;55.10;;;;;;6248063;23;20374;-87
2022/12/14 02:21:13;;;;;;;4.43;2.97;;;19.00;55.10;;;;;;6247976;23;20378;-88
2022/12/14 02:24:21;;;;;;;4.23;2.97;;;18.90;55.10;;;;;;6247935;23;20384;-88
2022/12/14 02:27:10;;;;;;;4.13;3.10;;;18.90;55.10;;;;;;6247953;23;20366;-88
2022/12/14 02:30:00;;;;;;;3.37;2.57;;;18.90;55.10;;;;;;6274221;23;20361;-88
2022/12/14 02:33:01;;;;;;;3.83;3.23;;;18.90;55.10;;;;;;6247888;23;20429;-87
2022/12/14 02:35:50;;;;;;;3.50;2.80;;;18.90;55.10;;;;;;6247851;23;20472;-87
2022/12/14 02:39:20;;;;;;;4.27;3.00;;;18.90;55.10;;;;;;6272923;23;20361;-87
2022/12/14 02:42:04;;;;;;;3.17;2.77;;;18.90;55.10;;;;;;6128081;23;20433;-87
2022/12/14 02:44:56;;;;;;;3.20;2.80;;;18.90;55.10;;;;;;6152767;23;20361;-88
2022/12/14 02:47:54;;;;;;;4.27;3.13;;;18.90;55.10;;;;;;6127784;23;20449;-88
2022/12/14 02:51:17;;;;;;;4.10;2.90;;;18.90;55.10;;;;;;6128038;23;20377;-88
2022/12/14 02:54:11;;;;;;;8.03;3.20;;;18.90;55.10;;;;;;6036679;23;20490;-88
2022/12/14 02:56:49;;;;;;;3.53;3.17;;;18.90;55.10;;;;;;6013225;23;20385;-88
2022/12/14 02:59:16;;;;;;;4.23;3.30;;;18.90;55.70;;;;;;6201726;23;20365;-88
2022/12/14 03:01:49;;;;;;;3.00;2.63;;;18.90;55.10;;;;;;6284880;22;20392;-88
2022/12/14 03:04:25;;;;;;;3.33;2.67;;;18.90;55.10;;;;;;6303723;22;20376;-87
2022/12/14 03:07:01;;;;;;;3.90;3.03;;;18.90;55.10;;;;;;6303791;22;20368;-88
2022/12/14 03:09:55;;;;;;;;;;;;;;;;;;;;;
2022/12/14 03:12:29;;;;;;;4.57;3.40;;;18.90;55.10;;;;;;6303197;22;20353;-88
2022/12/14 03:15:00;;;;;;;3.40;2.60;;;18.90;55.10;;;;;;6303776;22;20419;-88
2022/12/14 03:17:32;;;;;;;4.00;2.80;;;18.90;55.10;;;;;;6304759;22;20349;-88
2022/12/14 03:20:06;;;;;;;3.53;3.00;;;18.90;55.10;;;;;;6303864;22;20373;-88
2022/12/14 03:22:41;;;;;;;3.03;2.67;;;18.90;55.10;;;;;;6304016;22;20367;-88
2022/12/14 03:25:32;;;;;;;2.63;2.17;;;18.90;55.00;;;;;;6303710;22;20369;-88
2022/12/14 03:28:44;;;;;;;3.03;2.30;;;18.90;55.00;;;;;;6227593;22;20360;-88
2022/12/14 03:31:21;;;;;;;2.83;2.30;;;18.90;55.00;;;;;;6284998;22;20380;-88
2022/12/14 03:34:20;;;;;;;;;;;;;;;;;;;;;
2022/12/14 03:37:08;;;;;;;3.63;2.90;;;18.90;55.00;;;;;;6304173;22;20340;-87
2022/12/14 03:39:36;;;;;;;3.37;3.07;;;18.90;55.10;;;;;;6304260;22;20371;-87
2022/12/14 03:42:52;;;;;;;2.90;2.30;;;18.90;55.00;;;;;;6303394;22;20373;-87
2022/12/14 03:45:35;;;;;;;;;;;;;;;;;;;;;
2022/12/14 03:48:42;;;;;;;3.63;3.10;;;18.90;55.00;;;;;;6304265;22;20341;-88
2022/12/14 03:51:38;;;;;;;3.70;2.80;;;18.90;55.00;;;;;;6303588;22;20377;-88
2022/12/14 03:54:11;;;;;;;2.67;2.47;;;18.90;55.00;;;;;;6303615;22;20363;-88
2022/12/14 03:56:45;;;;;;;5.50;3.40;;;19.00;55.00;;;;;;6304154;22;20340;-88
2022/12/14 04:00:02;;;;;;;3.30;2.60;;;19.00;55.00;;;;;;6303169;22;20360;-88
2022/12/14 04:03:08;;;;;;;2.90;2.43;;;19.00;55.00;;;;;;6303342;22;20403;-88
2022/12/14 04:06:31;;;;;;;3.10;2.50;;;19.00;55.00;;;;;;6303562;22;20410;-88
2022/12/14 04:09:04;;;;;;;2.43;2.23;;;18.90;54.90;;;;;;6185723;22;20382;-88
2022/12/14 04:20:56;;;;;;;4.93;2.60;;;19.00;54.90;;;;;;6211650;23;20405;-88
2022/12/14 04:26:27;;;;;;;2.50;2.30;;;19.00;55.00;;;;;;6211393;23;20410;-88
2022/12/14 04:32:32;;;;;;;3.00;2.40;;;19.00;55.00;;;;;;6211551;23;20413;-88
2022/12/14 04:35:23;;;;;;;3.77;2.80;;;19.00;54.90;;;;;;6142195;23;20418;-88
2022/12/14 04:37:59;;;;;;;3.80;2.83;;;19.00;54.90;;;;;;6185969;23;20398;-88
2022/12/14 04:40:29;;;;;;;2.70;2.30;;;19.00;54.90;;;;;;6186233;23;20389;-88
2022/12/14 04:43:28;;;;;;;3.07;2.33;;;19.00;54.90;;;;;;6186054;23;20410;-88
2022/12/14 04:46:06;;;;;;;3.30;2.43;;;19.00;54.90;;;;;;6266876;22;20376;-88
2022/12/14 04:48:53;;;;;;;2.67;2.40;;;19.00;54.90;;;;;;6303711;22;20383;-88
2022/12/14 04:52:07;;;;;;;2.83;2.20;;;19.00;54.80;;;;;;6303912;22;20361;-87
2022/12/14 04:54:48;;;;;;;5.10;3.10;;;19.00;54.80;;;;;;6156009;23;20399;-88
2022/12/14 04:57:47;;;;;;;2.60;2.20;;;19.00;54.90;;;;;;6290455;22;20388;-88
2022/12/14 05:00:34;;;;;;;3.30;2.53;;;19.00;54.80;;;;;;6302684;22;20376;-87
2022/12/14 05:09:57;;;;;;;3.17;2.13;;;19.00;54.80;;;;;;6275020;23;20332;-87
2022/12/14 05:12:48;;;;;;;2.70;2.50;;;18.90;54.80;;;;;;6222488;23;20373;-87
2022/12/14 05:15:28;;;;;;;2.60;2.17;;;18.90;54.80;;;;;;6248834;23;20412;-87
2022/12/14 05:17:57;;;;;;;2.57;2.23;;;18.90;54.80;;;;;;6275071;23;20349;-87
2022/12/14 05:20:38;;;;;;;3.47;2.70;;;18.90;54.80;;;;;;6274864;23;20422;-88
2022/12/14 05:23:52;;;;;;;;;;;;;;;;;;;;;
2022/12/14 05:26:20;;;;;;;2.90;2.50;;;18.90;54.80;;;;;;6274858;23;20360;-87
2022/12/14 05:28:49;;;;;;;2.90;2.30;;;18.90;54.80;;;;;;6248801;23;20373;-88
2022/12/14 05:31:18;;;;;;;2.77;2.40;;;18.90;54.80;;;;;;6248671;23;20442;-87
2022/12/14 05:33:56;;;;;;;2.60;2.40;;;18.90;54.90;;;;;;6248534;23;20377;-87
2022/12/14 05:36:22;;;;;;;2.60;2.40;;;18.90;54.90;;;;;;6274562;23;20397;-88
2022/12/14 05:38:48;;;;;;;4.07;3.17;;;18.90;54.90;;;;;;6248602;23;20464;-89
2022/12/14 05:41:17;;;;;;;2.40;2.03;;;18.90;54.90;;;;;;6274846;23;20344;-88
2022/12/14 05:43:45;;;;;;;4.00;2.40;;;18.90;54.90;;;;;;6274700;23;20123;-88
2022/12/14 05:46:14;;;;;;;2.67;2.20;;;18.90;54.90;;;;;;6248540;23;20392;-88
2022/12/14 05:48:43;;;;;;;2.33;2.13;;;18.90;54.90;;;;;;6248159;23;20381;-89
2022/12/14 05:51:11;;;;;;;2.60;2.40;;;18.90;54.90;;;;;;6248121;23;20422;-88
2022/12/14 05:54:07;;;;;;;;;;;;;;;;;;;;;
2022/12/14 05:56:57;;;;;;;2.70;2.20;;;18.90;55.00;;;;;;6266107;23;20393;-88
2022/12/14 05:59:23;;;;;;;2.40;2.10;;;18.80;54.90;;;;;;6248602;23;20373;-89
2022/12/14 06:01:49;;;;;;;2.63;1.97;;;18.80;55.00;;;;;;6274740;22;20380;-89
2022/12/14 06:04:16;;;;;;;3.53;2.20;;;18.80;55.00;;;;;;6274674;23;20162;-88
2022/12/14 06:06:50;;;;;;;3.90;2.77;;;18.80;55.10;;;;;;6248213;23;20366;-90
2022/12/14 06:09:23;;;;;;;2.90;2.47;;;18.80;55.10;;;;;;6247912;23;20385;-90
2022/12/14 06:11:52;;;;;;;3.50;2.40;;;18.80;55.10;;;;;;6248311;23;20377;-89
2022/12/14 06:14:41;;;;;;;4.00;2.40;;;18.80;55.20;;;;;;6247953;23;20381;-89
2022/12/14 06:17:10;;;;;;;3.00;2.07;;;18.80;55.20;;;;;;6247967;23;20408;-88
2022/12/14 06:19:54;;;;;;;2.27;2.03;;;18.80;55.20;;;;;;6247626;23;20396;-89
2022/12/14 06:22:27;;;;;;;5.60;3.13;;;18.80;55.20;;;;;;6273922;23;20340;-88
2022/12/14 06:25:02;;;;;;;2.33;2.13;;;18.80;55.30;;;;;;6247876;23;20384;-88
2022/12/14 06:27:33;;;;;;;2.60;2.00;;;18.80;55.30;;;;;;6247944;23;20385;-89
2022/12/14 06:30:10;;;;;;;3.43;2.27;;;18.80;55.30;;;;;;6244404;23;20381;-89
2022/12/14 06:32:59;;;;;;;2.97;2.27;;;18.80;55.30;;;;;;6247489;23;20433;-89
2022/12/14 06:35:30;;;;;;;3.10;2.27;;;18.80;55.30;;;;;;6151769;23;20416;-88
2022/12/14 06:37:58;;;;;;;3.27;2.40;;;18.80;55.30;;;;;;6127445;23;20412;-89
2022/12/14 06:40:59;;;;;;;3.20;1.80;;;18.80;55.30;;;;;;6127842;23;20412;-88
2022/12/14 06:44:04;;;;;;;;;;;;;;;;;;;;;
2022/12/14 06:46:42;;;;;;;3.20;2.50;;;18.80;55.30;;;;;;6152208;23;20376;-88
2022/12/14 06:49:24;;;;;;;;;;;;;;;;;;;;;
2022/12/14 06:52:01;;;;;;;;;;;;;;;;;;;;;
2022/12/14 06:54:45;;;;;;;2.47;2.13;;;18.90;55.30;;;;;;6152294;23;20404;-90
2022/12/14 06:57:29;;;;;;;3.30;2.20;;;18.90;55.30;;;;;;6127622;23;20372;-88
2022/12/14 07:00:28;;;;;;;3.10;2.30;;;19.00;55.30;;;;;;6127529;23;20377;-88
2022/12/14 07:02:59;;;;;;;4.63;2.60;;;19.00;55.30;;;;;;6057456;23;20407;-90
2022/12/14 07:05:25;;;;;;;2.70;2.07;;;19.00;55.30;;;;;;6182111;23;20380;-89
2022/12/14 07:07:51;;;;;;;4.17;2.20;;;19.00;55.20;;;;;;6156762;23;20376;-89
2022/12/14 07:10:19;;;;;;;3.07;2.37;;;19.00;55.20;;;;;;6156858;23;20991;-90
2022/12/14 07:12:45;;;;;;;2.70;2.20;;;19.10;55.20;;;;;;6264947;22;20141;-89
2022/12/14 07:15:33;;;;;;;3.97;2.10;;;19.10;55.20;;;;;;6303581;22;20726;-89
2022/12/14 07:22:07;;;;;;;;;;;;;;;;;;;;;
2022/12/14 07:25:05;;;;;;;;;;;;;;;;;;;;;
2022/12/14 07:27:37;;;;;;;4.00;2.00;;;19.10;55.00;;;;;;6304580;22;20376;-89
2022/12/14 07:30:03;;;;;;;3.17;2.03;;;19.20;55.10;;;;;;6303351;22;20388;-90
2022/12/14 07:33:30;;;;;;;4.23;2.47;;;19.20;55.10;;;;;;6303294;22;20356;-88
2022/12/14 07:36:17;;;;;;;4.63;2.23;;;19.20;55.10;;;;;;6205436;22;20430;-89
2022/12/14 07:38:50;;;;;;;3.37;2.00;;;19.20;55.10;;;;;;6303184;22;20376;-89
2022/12/14 07:44:24;;;;;;;2.87;2.57;;;19.20;55.00;;;;;;6282481;22;20404;-88
2022/12/14 07:47:11;;;;;;;4.80;1.90;;;19.20;55.00;;;;;;6303305;22;20363;-90
2022/12/14 07:50:45;;;;;;;2.90;2.60;;;19.20;55.00;;;;;;6276905;22;20376;-89
